sensor_id;sensor_type;location;lat;lon;timestamp;P1;durP1;ratioP1;P2;durP2;ratioP2
46210;SDS011;52144;48.040;-1.594;2022-07-23T00:00:33;3.40;;;1.95;;
46210;SDS011;52144;48.040;-1.594;2022-07-23T00:03:04;8.38;;;1.90;;
46210;SDS011;52144;48.040;-1.594;2022-07-23T00:05:32;0.73;;;0.73;;
46210;SDS011;52144;48.040;-1.594;2022-07-23T00:08:04;3.22;;;1.50;;
46210;SDS011;52144;48.040;-1.594;2022-07-23T00:10:39;1.85;;;1.10;;
46210;SDS011;52144;48.040;-1.594;2022-07-23T00:13:07;6.00;;;1.42;;
46210;SDS011;52144;48.040;-1.594;2022-07-23T00:15:35;2.45;;;1.60;;
46210;SDS011;52144;48.040;-1.594;2022-07-23T00:18:03;1.92;;;1.38;;
46210;SDS011;52144;48.040;-1.594;2022-07-23T00:20:31;2.45;;;1.15;;
46210;SDS011;52144;48.040;-1.594;2022-07-23T00:22:58;3.75;;;2.17;;
46210;SDS011;52144;48.040;-1.594;2022-07-23T00:25:28;7.18;;;1.80;;
46210;SDS011;52144;48.040;-1.594;2022-07-23T00:27:57;2.47;;;1.13;;
46210;SDS011;52144;48.040;-1.594;2022-07-23T00:30:25;2.25;;;1.05;;
46210;SDS011;52144;48.040;-1.594;2022-07-23T00:32:56;4.35;;;1.25;;
46210;SDS011;52144;48.040;-1.594;2022-07-23T00:35:26;3.80;;;1.92;;
46210;SDS011;52144;48.040;-1.594;2022-07-23T00:37:55;4.13;;;1.20;;
46210;SDS011;52144;48.040;-1.594;2022-07-23T00:40:23;4.82;;;1.58;;
46210;SDS011;52144;48.040;-1.594;2022-07-23T00:42:53;2.05;;;1.52;;
46210;SDS011;52144;48.040;-1.594;2022-07-23T00:45:21;1.27;;;1.17;;
46210;SDS011;52144;48.040;-1.594;2022-07-23T00:47:49;2.78;;;1.20;;
46210;SDS011;52144;48.040;-1.594;2022-07-23T00:50:17;2.40;;;1.08;;
46210;SDS011;52144;48.040;-1.594;2022-07-23T00:52:44;1.65;;;1.30;;
46210;SDS011;52144;48.040;-1.594;2022-07-23T00:55:13;4.20;;;1.95;;
46210;SDS011;52144;48.040;-1.594;2022-07-23T00:57:41;0.93;;;0.88;;
46210;SDS011;52144;48.040;-1.594;2022-07-23T01:00:12;1.92;;;1.00;;
46210;SDS011;52144;48.040;-1.594;2022-07-23T01:02:41;1.10;;;1.00;;
46210;SDS011;52144;48.040;-1.594;2022-07-23T01:05:12;1.73;;;1.10;;
46210;SDS011;52144;48.040;-1.594;2022-07-23T01:07:40;3.15;;;1.95;;
46210;SDS011;52144;48.040;-1.594;2022-07-23T01:10:09;3.80;;;1.48;;
46210;SDS011;52144;48.040;-1.594;2022-07-23T01:12:51;5.88;;;2.10;;
46210;SDS011;52144;48.040;-1.594;2022-07-23T01:15:20;1.48;;;1.25;;
46210;SDS011;52144;48.040;-1.594;2022-07-23T01:17:49;6.43;;;1.85;;
46210;SDS011;52144;48.040;-1.594;2022-07-23T01:20:16;1.52;;;1.42;;
46210;SDS011;52144;48.040;-1.594;2022-07-23T01:22:46;3.20;;;1.40;;
46210;SDS011;52144;48.040;-1.594;2022-07-23T01:25:14;1.95;;;1.75;;
46210;SDS011;52144;48.040;-1.594;2022-07-23T01:27:42;1.60;;;1.50;;
46210;SDS011;52144;48.040;-1.594;2022-07-23T01:30:10;4.65;;;1.77;;
46210;SDS011;52144;48.040;-1.594;2022-07-23T01:32:39;5.47;;;2.75;;
46210;SDS011;52144;48.040;-1.594;2022-07-23T01:35:07;9.23;;;1.73;;
46210;SDS011;52144;48.040;-1.594;2022-07-23T01:37:35;3.50;;;2.13;;
46210;SDS011;52144;48.040;-1.594;2022-07-23T01:40:06;1.98;;;1.10;;
46210;SDS011;52144;48.040;-1.594;2022-07-23T01:42:35;2.72;;;1.63;;
46210;SDS011;52144;48.040;-1.594;2022-07-23T01:45:04;2.15;;;1.17;;
46210;SDS011;52144;48.040;-1.594;2022-07-23T01:47:32;2.45;;;1.55;;
46210;SDS011;52144;48.040;-1.594;2022-07-23T01:50:00;8.13;;;1.63;;
46210;SDS011;52144;48.040;-1.594;2022-07-23T01:52:28;4.15;;;2.28;;
46210;SDS011;52144;48.040;-1.594;2022-07-23T01:54:56;1.55;;;1.13;;
46210;SDS011;52144;48.040;-1.594;2022-07-23T01:57:25;1.85;;;1.65;;
46210;SDS011;52144;48.040;-1.594;2022-07-23T01:59:53;4.82;;;1.70;;
46210;SDS011;52144;48.040;-1.594;2022-07-23T02:02:20;1.63;;;1.42;;
46210;SDS011;52144;48.040;-1.594;2022-07-23T02:04:48;3.22;;;2.42;;
46210;SDS011;52144;48.040;-1.594;2022-07-23T02:07:16;4.78;;;1.80;;
46210;SDS011;52144;48.040;-1.594;2022-07-23T02:09:44;2.28;;;1.13;;
46210;SDS011;52144;48.040;-1.594;2022-07-23T02:12:12;2.42;;;1.45;;
46210;SDS011;52144;48.040;-1.594;2022-07-23T02:14:41;2.75;;;1.90;;
46210;SDS011;52144;48.040;-1.594;2022-07-23T02:17:09;3.95;;;1.58;;
46210;SDS011;52144;48.040;-1.594;2022-07-23T02:19:36;11.68;;;3.45;;
46210;SDS011;52144;48.040;-1.594;2022-07-23T02:22:04;1.67;;;1.42;;
46210;SDS011;52144;48.040;-1.594;2022-07-23T02:24:32;4.35;;;2.17;;
46210;SDS011;52144;48.040;-1.594;2022-07-23T02:27:00;1.65;;;1.52;;
46210;SDS011;52144;48.040;-1.594;2022-07-23T02:29:28;6.65;;;2.13;;
46210;SDS011;52144;48.040;-1.594;2022-07-23T02:31:57;4.18;;;2.13;;
46210;SDS011;52144;48.040;-1.594;2022-07-23T02:34:25;3.55;;;1.70;;
46210;SDS011;52144;48.040;-1.594;2022-07-23T02:36:52;4.45;;;1.90;;
46210;SDS011;52144;48.040;-1.594;2022-07-23T02:39:20;5.45;;;1.60;;
46210;SDS011;52144;48.040;-1.594;2022-07-23T02:41:48;3.45;;;1.80;;
46210;SDS011;52144;48.040;-1.594;2022-07-23T02:44:16;5.78;;;1.48;;
46210;SDS011;52144;48.040;-1.594;2022-07-23T02:46:43;4.35;;;1.52;;
46210;SDS011;52144;48.040;-1.594;2022-07-23T02:49:13;2.00;;;1.63;;
46210;SDS011;52144;48.040;-1.594;2022-07-23T02:51:41;2.03;;;1.10;;
46210;SDS011;52144;48.040;-1.594;2022-07-23T02:54:09;3.67;;;1.77;;
46210;SDS011;52144;48.040;-1.594;2022-07-23T02:56:36;6.72;;;2.50;;
46210;SDS011;52144;48.040;-1.594;2022-07-23T02:59:04;3.95;;;1.45;;
46210;SDS011;52144;48.040;-1.594;2022-07-23T03:01:32;2.75;;;1.75;;
46210;SDS011;52144;48.040;-1.594;2022-07-23T03:04:00;1.77;;;1.50;;
46210;SDS011;52144;48.040;-1.594;2022-07-23T03:06:29;5.07;;;1.75;;
46210;SDS011;52144;48.040;-1.594;2022-07-23T03:08:57;1.90;;;1.42;;
46210;SDS011;52144;48.040;-1.594;2022-07-23T03:11:25;2.35;;;1.63;;
46210;SDS011;52144;48.040;-1.594;2022-07-23T03:13:53;3.25;;;1.40;;
46210;SDS011;52144;48.040;-1.594;2022-07-23T03:16:21;2.58;;;1.30;;
46210;SDS011;52144;48.040;-1.594;2022-07-23T03:18:49;1.52;;;1.23;;
46210;SDS011;52144;48.040;-1.594;2022-07-23T03:21:16;1.38;;;1.27;;
46210;SDS011;52144;48.040;-1.594;2022-07-23T03:23:46;2.67;;;1.15;;
46210;SDS011;52144;48.040;-1.594;2022-07-23T03:26:13;1.30;;;1.15;;
46210;SDS011;52144;48.040;-1.594;2022-07-23T03:28:41;1.65;;;1.55;;
46210;SDS011;52144;48.040;-1.594;2022-07-23T03:31:09;4.18;;;1.33;;
46210;SDS011;52144;48.040;-1.594;2022-07-23T03:33:37;1.58;;;1.25;;
46210;SDS011;52144;48.040;-1.594;2022-07-23T03:36:05;5.60;;;1.85;;
46210;SDS011;52144;48.040;-1.594;2022-07-23T03:38:35;2.90;;;1.40;;
46210;SDS011;52144;48.040;-1.594;2022-07-23T03:41:04;3.55;;;1.58;;
46210;SDS011;52144;48.040;-1.594;2022-07-23T03:43:32;3.75;;;1.90;;
46210;SDS011;52144;48.040;-1.594;2022-07-23T03:46:00;5.95;;;2.15;;
46210;SDS011;52144;48.040;-1.594;2022-07-23T03:48:28;2.78;;;1.40;;
46210;SDS011;52144;48.040;-1.594;2022-07-23T03:50:56;2.17;;;1.48;;
46210;SDS011;52144;48.040;-1.594;2022-07-23T03:53:24;3.03;;;1.88;;
46210;SDS011;52144;48.040;-1.594;2022-07-23T03:55:52;13.35;;;2.15;;
46210;SDS011;52144;48.040;-1.594;2022-07-23T03:58:21;2.90;;;1.55;;
46210;SDS011;52144;48.040;-1.594;2022-07-23T04:00:49;1.83;;;1.70;;
46210;SDS011;52144;48.040;-1.594;2022-07-23T04:03:16;2.00;;;1.52;;
46210;SDS011;52144;48.040;-1.594;2022-07-23T04:05:44;2.35;;;1.60;;
46210;SDS011;52144;48.040;-1.594;2022-07-23T04:08:12;2.88;;;1.40;;
46210;SDS011;52144;48.040;-1.594;2022-07-23T04:10:40;4.10;;;2.05;;
46210;SDS011;52144;48.040;-1.594;2022-07-23T04:13:08;4.35;;;2.10;;
46210;SDS011;52144;48.040;-1.594;2022-07-23T04:15:37;3.05;;;1.77;;
46210;SDS011;52144;48.040;-1.594;2022-07-23T04:18:05;3.03;;;2.00;;
46210;SDS011;52144;48.040;-1.594;2022-07-23T04:20:34;4.38;;;2.75;;
46210;SDS011;52144;48.040;-1.594;2022-07-23T04:23:06;5.93;;;1.70;;
46210;SDS011;52144;48.040;-1.594;2022-07-23T04:25:34;2.00;;;1.58;;
46210;SDS011;52144;48.040;-1.594;2022-07-23T04:28:01;1.73;;;1.40;;
46210;SDS011;52144;48.040;-1.594;2022-07-23T04:30:29;1.50;;;1.20;;
46210;SDS011;52144;48.040;-1.594;2022-07-23T04:32:59;2.35;;;1.55;;
46210;SDS011;52144;48.040;-1.594;2022-07-23T04:35:26;5.47;;;1.42;;
46210;SDS011;52144;48.040;-1.594;2022-07-23T04:37:54;1.33;;;1.23;;
46210;SDS011;52144;48.040;-1.594;2022-07-23T04:40:22;2.50;;;1.60;;
46210;SDS011;52144;48.040;-1.594;2022-07-23T04:42:50;1.02;;;0.93;;
46210;SDS011;52144;48.040;-1.594;2022-07-23T04:45:17;1.52;;;1.42;;
46210;SDS011;52144;48.040;-1.594;2022-07-23T04:47:46;4.65;;;1.90;;
46210;SDS011;52144;48.040;-1.594;2022-07-23T04:50:16;2.10;;;1.38;;
46210;SDS011;52144;48.040;-1.594;2022-07-23T04:52:47;2.00;;;1.70;;
46210;SDS011;52144;48.040;-1.594;2022-07-23T04:55:15;2.58;;;1.98;;
46210;SDS011;52144;48.040;-1.594;2022-07-23T04:57:43;3.03;;;1.38;;
46210;SDS011;52144;48.040;-1.594;2022-07-23T05:00:11;1.83;;;1.52;;
46210;SDS011;52144;48.040;-1.594;2022-07-23T05:02:40;4.25;;;1.77;;
46210;SDS011;52144;48.040;-1.594;2022-07-23T05:05:07;2.45;;;1.90;;
46210;SDS011;52144;48.040;-1.594;2022-07-23T05:07:37;5.18;;;1.38;;
46210;SDS011;52144;48.040;-1.594;2022-07-23T05:10:05;3.65;;;1.60;;
46210;SDS011;52144;48.040;-1.594;2022-07-23T05:12:33;2.72;;;1.45;;
46210;SDS011;52144;48.040;-1.594;2022-07-23T05:15:00;1.40;;;1.25;;
46210;SDS011;52144;48.040;-1.594;2022-07-23T05:17:28;4.50;;;1.58;;
46210;SDS011;52144;48.040;-1.594;2022-07-23T05:19:56;1.65;;;1.55;;
46210;SDS011;52144;48.040;-1.594;2022-07-23T05:22:26;2.97;;;2.05;;
46210;SDS011;52144;48.040;-1.594;2022-07-23T05:24:56;2.50;;;1.30;;
46210;SDS011;52144;48.040;-1.594;2022-07-23T05:27:23;4.13;;;1.65;;
46210;SDS011;52144;48.040;-1.594;2022-07-23T05:29:51;2.28;;;1.60;;
46210;SDS011;52144;48.040;-1.594;2022-07-23T05:32:19;2.60;;;2.00;;
46210;SDS011;52144;48.040;-1.594;2022-07-23T05:34:47;2.72;;;1.50;;
46210;SDS011;52144;48.040;-1.594;2022-07-23T05:37:14;1.85;;;1.48;;
46210;SDS011;52144;48.040;-1.594;2022-07-23T05:39:42;3.78;;;2.13;;
46210;SDS011;52144;48.040;-1.594;2022-07-23T05:42:11;2.55;;;1.98;;
46210;SDS011;52144;48.040;-1.594;2022-07-23T05:44:39;1.85;;;1.67;;
46210;SDS011;52144;48.040;-1.594;2022-07-23T05:47:07;2.83;;;1.38;;
46210;SDS011;52144;48.040;-1.594;2022-07-23T05:49:36;3.03;;;1.40;;
46210;SDS011;52144;48.040;-1.594;2022-07-23T05:52:05;2.33;;;1.40;;
46210;SDS011;52144;48.040;-1.594;2022-07-23T05:54:34;3.78;;;2.08;;
46210;SDS011;52144;48.040;-1.594;2022-07-23T05:57:02;2.58;;;1.80;;
46210;SDS011;52144;48.040;-1.594;2022-07-23T05:59:31;3.95;;;1.63;;
46210;SDS011;52144;48.040;-1.594;2022-07-23T06:01:59;3.30;;;1.40;;
46210;SDS011;52144;48.040;-1.594;2022-07-23T06:04:27;1.70;;;1.60;;
46210;SDS011;52144;48.040;-1.594;2022-07-23T06:06:55;4.70;;;1.45;;
46210;SDS011;52144;48.040;-1.594;2022-07-23T06:09:22;6.53;;;2.42;;
46210;SDS011;52144;48.040;-1.594;2022-07-23T06:11:50;2.63;;;1.73;;
46210;SDS011;52144;48.040;-1.594;2022-07-23T06:14:18;3.53;;;1.63;;
46210;SDS011;52144;48.040;-1.594;2022-07-23T06:16:47;1.92;;;1.65;;
46210;SDS011;52144;48.040;-1.594;2022-07-23T06:19:15;2.95;;;1.50;;
46210;SDS011;52144;48.040;-1.594;2022-07-23T06:21:42;2.75;;;1.58;;
46210;SDS011;52144;48.040;-1.594;2022-07-23T06:24:13;3.08;;;1.75;;
46210;SDS011;52144;48.040;-1.594;2022-07-23T06:26:41;4.90;;;2.20;;
46210;SDS011;52144;48.040;-1.594;2022-07-23T06:29:08;2.17;;;2.00;;
46210;SDS011;52144;48.040;-1.594;2022-07-23T06:31:36;1.85;;;1.50;;
46210;SDS011;52144;48.040;-1.594;2022-07-23T06:34:06;2.63;;;1.70;;
46210;SDS011;52144;48.040;-1.594;2022-07-23T06:36:33;4.03;;;2.35;;
46210;SDS011;52144;48.040;-1.594;2022-07-23T06:39:01;3.50;;;2.17;;
46210;SDS011;52144;48.040;-1.594;2022-07-23T06:41:31;5.95;;;2.70;;
46210;SDS011;52144;48.040;-1.594;2022-07-23T06:43:58;2.75;;;2.25;;
46210;SDS011;52144;48.040;-1.594;2022-07-23T06:46:26;3.55;;;2.35;;
46210;SDS011;52144;48.040;-1.594;2022-07-23T06:48:54;3.92;;;1.80;;
46210;SDS011;52144;48.040;-1.594;2022-07-23T06:51:23;1.50;;;1.17;;
46210;SDS011;52144;48.040;-1.594;2022-07-23T06:53:51;4.30;;;1.90;;
46210;SDS011;52144;48.040;-1.594;2022-07-23T06:56:19;3.17;;;1.58;;
46210;SDS011;52144;48.040;-1.594;2022-07-23T06:58:47;4.22;;;1.70;;
46210;SDS011;52144;48.040;-1.594;2022-07-23T07:01:15;2.67;;;1.55;;
46210;SDS011;52144;48.040;-1.594;2022-07-23T07:03:43;16.98;;;2.75;;
46210;SDS011;52144;48.040;-1.594;2022-07-23T07:06:10;5.45;;;1.67;;
46210;SDS011;52144;48.040;-1.594;2022-07-23T07:08:40;4.07;;;2.65;;
46210;SDS011;52144;48.040;-1.594;2022-07-23T07:11:09;2.50;;;1.45;;
46210;SDS011;52144;48.040;-1.594;2022-07-23T07:13:37;1.92;;;1.48;;
46210;SDS011;52144;48.040;-1.594;2022-07-23T07:16:05;6.18;;;1.52;;
46210;SDS011;52144;48.040;-1.594;2022-07-23T07:18:33;2.65;;;2.17;;
46210;SDS011;52144;48.040;-1.594;2022-07-23T07:21:01;8.63;;;2.05;;
46210;SDS011;52144;48.040;-1.594;2022-07-23T07:23:29;4.85;;;1.85;;
46210;SDS011;52144;48.040;-1.594;2022-07-23T07:25:58;2.85;;;1.42;;
46210;SDS011;52144;48.040;-1.594;2022-07-23T07:28:26;2.97;;;1.33;;
46210;SDS011;52144;48.040;-1.594;2022-07-23T07:30:54;3.95;;;2.33;;
46210;SDS011;52144;48.040;-1.594;2022-07-23T07:33:22;5.57;;;2.35;;
46210;SDS011;52144;48.040;-1.594;2022-07-23T07:35:50;5.75;;;1.88;;
46210;SDS011;52144;48.040;-1.594;2022-07-23T07:38:18;2.47;;;1.25;;
46210;SDS011;52144;48.040;-1.594;2022-07-23T07:40:46;3.13;;;1.90;;
46210;SDS011;52144;48.040;-1.594;2022-07-23T07:43:15;3.05;;;1.52;;
46210;SDS011;52144;48.040;-1.594;2022-07-23T07:45:43;2.60;;;1.63;;
46210;SDS011;52144;48.040;-1.594;2022-07-23T07:48:11;2.08;;;1.73;;
46210;SDS011;52144;48.040;-1.594;2022-07-23T07:50:39;4.40;;;1.70;;
46210;SDS011;52144;48.040;-1.594;2022-07-23T07:53:06;3.55;;;1.55;;
46210;SDS011;52144;48.040;-1.594;2022-07-23T07:55:35;2.05;;;1.30;;
46210;SDS011;52144;48.040;-1.594;2022-07-23T07:58:03;5.10;;;1.83;;
46210;SDS011;52144;48.040;-1.594;2022-07-23T08:00:32;2.95;;;2.00;;
46210;SDS011;52144;48.040;-1.594;2022-07-23T08:03:00;2.90;;;1.58;;
46210;SDS011;52144;48.040;-1.594;2022-07-23T08:05:29;3.60;;;2.42;;
46210;SDS011;52144;48.040;-1.594;2022-07-23T08:07:58;3.75;;;1.73;;
46210;SDS011;52144;48.040;-1.594;2022-07-23T08:10:26;1.75;;;1.63;;
46210;SDS011;52144;48.040;-1.594;2022-07-23T08:12:55;2.65;;;1.40;;
46210;SDS011;52144;48.040;-1.594;2022-07-23T08:15:24;1.85;;;1.30;;
46210;SDS011;52144;48.040;-1.594;2022-07-23T08:17:55;1.90;;;1.38;;
46210;SDS011;52144;48.040;-1.594;2022-07-23T08:20:24;1.90;;;1.60;;
46210;SDS011;52144;48.040;-1.594;2022-07-23T08:22:55;1.95;;;1.55;;
46210;SDS011;52144;48.040;-1.594;2022-07-23T08:25:25;2.80;;;1.70;;
46210;SDS011;52144;48.040;-1.594;2022-07-23T08:27:54;3.92;;;1.40;;
46210;SDS011;52144;48.040;-1.594;2022-07-23T08:30:22;3.67;;;1.60;;
46210;SDS011;52144;48.040;-1.594;2022-07-23T08:32:51;1.50;;;1.40;;
46210;SDS011;52144;48.040;-1.594;2022-07-23T08:35:27;4.65;;;2.35;;
46210;SDS011;52144;48.040;-1.594;2022-07-23T08:37:56;6.75;;;2.22;;
46210;SDS011;52144;48.040;-1.594;2022-07-23T08:40:25;3.35;;;2.75;;
46210;SDS011;52144;48.040;-1.594;2022-07-23T08:42:54;3.22;;;1.83;;
46210;SDS011;52144;48.040;-1.594;2022-07-23T08:45:23;2.30;;;1.67;;
46210;SDS011;52144;48.040;-1.594;2022-07-23T08:47:53;4.15;;;1.58;;
46210;SDS011;52144;48.040;-1.594;2022-07-23T08:50:23;3.35;;;2.10;;
46210;SDS011;52144;48.040;-1.594;2022-07-23T08:52:52;5.72;;;2.63;;
46210;SDS011;52144;48.040;-1.594;2022-07-23T08:55:22;3.08;;;1.98;;
46210;SDS011;52144;48.040;-1.594;2022-07-23T08:57:50;3.83;;;1.92;;
46210;SDS011;52144;48.040;-1.594;2022-07-23T09:00:20;5.97;;;2.45;;
46210;SDS011;52144;48.040;-1.594;2022-07-23T09:02:49;5.45;;;1.63;;
46210;SDS011;52144;48.040;-1.594;2022-07-23T09:05:17;5.05;;;1.77;;
46210;SDS011;52144;48.040;-1.594;2022-07-23T09:08:09;2.95;;;1.73;;
46210;SDS011;52144;48.040;-1.594;2022-07-23T09:10:45;3.17;;;2.03;;
46210;SDS011;52144;48.040;-1.594;2022-07-23T09:13:24;4.25;;;1.70;;
46210;SDS011;52144;48.040;-1.594;2022-07-23T09:15:56;2.17;;;0.98;;
46210;SDS011;52144;48.040;-1.594;2022-07-23T09:18:36;4.03;;;1.55;;
46210;SDS011;52144;48.040;-1.594;2022-07-23T09:21:19;3.60;;;1.58;;
46210;SDS011;52144;48.040;-1.594;2022-07-23T09:23:52;2.50;;;1.55;;
46210;SDS011;52144;48.040;-1.594;2022-07-23T09:26:26;5.38;;;1.42;;
46210;SDS011;52144;48.040;-1.594;2022-07-23T09:28:58;3.38;;;1.73;;
46210;SDS011;52144;48.040;-1.594;2022-07-23T09:31:42;3.83;;;1.38;;
46210;SDS011;52144;48.040;-1.594;2022-07-23T09:34:12;3.03;;;1.30;;
46210;SDS011;52144;48.040;-1.594;2022-07-23T09:36:42;4.63;;;1.58;;
46210;SDS011;52144;48.040;-1.594;2022-07-23T09:39:11;2.17;;;1.60;;
46210;SDS011;52144;48.040;-1.594;2022-07-23T09:41:41;2.05;;;1.30;;
46210;SDS011;52144;48.040;-1.594;2022-07-23T09:44:14;3.83;;;1.42;;
46210;SDS011;52144;48.040;-1.594;2022-07-23T09:46:44;1.85;;;1.30;;
46210;SDS011;52144;48.040;-1.594;2022-07-23T09:49:14;1.92;;;1.13;;
46210;SDS011;52144;48.040;-1.594;2022-07-23T09:51:47;1.27;;;1.15;;
46210;SDS011;52144;48.040;-1.594;2022-07-23T09:54:22;3.45;;;1.33;;
46210;SDS011;52144;48.040;-1.594;2022-07-23T09:57:02;0.98;;;0.88;;
46210;SDS011;52144;48.040;-1.594;2022-07-23T09:59:34;1.35;;;1.13;;
46210;SDS011;52144;48.040;-1.594;2022-07-23T10:02:04;2.45;;;1.20;;
46210;SDS011;52144;48.040;-1.594;2022-07-23T10:04:33;2.47;;;1.40;;
46210;SDS011;52144;48.040;-1.594;2022-07-23T10:07:04;3.70;;;1.15;;
46210;SDS011;52144;48.040;-1.594;2022-07-23T10:09:36;1.20;;;0.80;;
46210;SDS011;52144;48.040;-1.594;2022-07-23T10:12:09;2.38;;;1.02;;
46210;SDS011;52144;48.040;-1.594;2022-07-23T10:14:48;1.67;;;1.13;;
46210;SDS011;52144;48.040;-1.594;2022-07-23T10:17:17;1.33;;;1.15;;
46210;SDS011;52144;48.040;-1.594;2022-07-23T10:19:45;4.57;;;1.42;;
46210;SDS011;52144;48.040;-1.594;2022-07-23T10:22:14;3.92;;;1.10;;
46210;SDS011;52144;48.040;-1.594;2022-07-23T10:25:03;2.70;;;1.17;;
46210;SDS011;52144;48.040;-1.594;2022-07-23T10:27:48;3.90;;;1.10;;
46210;SDS011;52144;48.040;-1.594;2022-07-23T10:30:30;1.38;;;1.23;;
46210;SDS011;52144;48.040;-1.594;2022-07-23T10:33:09;1.02;;;0.80;;
46210;SDS011;52144;48.040;-1.594;2022-07-23T10:35:50;1.15;;;1.05;;
46210;SDS011;52144;48.040;-1.594;2022-07-23T10:38:24;0.80;;;0.80;;
46210;SDS011;52144;48.040;-1.594;2022-07-23T10:40:57;3.05;;;1.20;;
46210;SDS011;52144;48.040;-1.594;2022-07-23T10:43:28;3.47;;;1.20;;
46210;SDS011;52144;48.040;-1.594;2022-07-23T10:45:57;4.32;;;1.63;;
46210;SDS011;52144;48.040;-1.594;2022-07-23T10:52:16;1.95;;;1.10;;
46210;SDS011;52144;48.040;-1.594;2022-07-23T10:54:48;4.22;;;1.35;;
46210;SDS011;52144;48.040;-1.594;2022-07-23T10:57:19;1.10;;;0.90;;
46210;SDS011;52144;48.040;-1.594;2022-07-23T11:02:47;1.23;;;1.08;;
46210;SDS011;52144;48.040;-1.594;2022-07-23T11:05:16;1.98;;;1.10;;
46210;SDS011;52144;48.040;-1.594;2022-07-23T11:10:43;5.15;;;1.30;;
46210;SDS011;52144;48.040;-1.594;2022-07-23T11:13:30;1.40;;;0.90;;
46210;SDS011;52144;48.040;-1.594;2022-07-23T11:16:12;1.50;;;1.02;;
46210;SDS011;52144;48.040;-1.594;2022-07-23T11:21:43;2.95;;;1.02;;
46210;SDS011;52144;48.040;-1.594;2022-07-23T11:24:14;1.50;;;0.85;;
46210;SDS011;52144;48.040;-1.594;2022-07-23T11:26:44;1.13;;;1.00;;
46210;SDS011;52144;48.040;-1.594;2022-07-23T11:35:19;4.28;;;1.00;;
46210;SDS011;52144;48.040;-1.594;2022-07-23T11:37:54;0.93;;;0.80;;
46210;SDS011;52144;48.040;-1.594;2022-07-23T11:40:29;0.70;;;0.70;;
46210;SDS011;52144;48.040;-1.594;2022-07-23T11:42:58;0.63;;;0.63;;
46210;SDS011;52144;48.040;-1.594;2022-07-23T11:45:31;0.85;;;0.77;;
46210;SDS011;52144;48.040;-1.594;2022-07-23T11:48:01;3.67;;;1.08;;
46210;SDS011;52144;48.040;-1.594;2022-07-23T11:50:30;0.65;;;0.60;;
46210;SDS011;52144;48.040;-1.594;2022-07-23T11:52:58;1.10;;;0.80;;
46210;SDS011;52144;48.040;-1.594;2022-07-23T11:55:26;1.73;;;0.57;;
46210;SDS011;52144;48.040;-1.594;2022-07-23T11:57:54;3.47;;;1.05;;
46210;SDS011;52144;48.040;-1.594;2022-07-23T12:00:26;1.45;;;0.90;;
46210;SDS011;52144;48.040;-1.594;2022-07-23T12:02:57;1.73;;;0.70;;
46210;SDS011;52144;48.040;-1.594;2022-07-23T12:05:28;0.95;;;0.85;;
46210;SDS011;52144;48.040;-1.594;2022-07-23T12:07:57;2.17;;;0.73;;
46210;SDS011;52144;48.040;-1.594;2022-07-23T12:10:27;1.05;;;0.65;;
46210;SDS011;52144;48.040;-1.594;2022-07-23T12:12:56;1.02;;;0.90;;
46210;SDS011;52144;48.040;-1.594;2022-07-23T12:15:25;3.47;;;0.95;;
46210;SDS011;52144;48.040;-1.594;2022-07-23T12:17:59;1.30;;;0.90;;
46210;SDS011;52144;48.040;-1.594;2022-07-23T12:20:28;1.05;;;0.77;;
46210;SDS011;52144;48.040;-1.594;2022-07-23T12:22:58;0.80;;;0.80;;
46210;SDS011;52144;48.040;-1.594;2022-07-23T12:25:28;1.15;;;0.80;;
46210;SDS011;52144;48.040;-1.594;2022-07-23T12:27:58;2.67;;;0.90;;
46210;SDS011;52144;48.040;-1.594;2022-07-23T12:30:28;0.63;;;0.63;;
46210;SDS011;52144;48.040;-1.594;2022-07-23T12:33:01;1.17;;;0.57;;
46210;SDS011;52144;48.040;-1.594;2022-07-23T12:35:32;1.67;;;1.00;;
46210;SDS011;52144;48.040;-1.594;2022-07-23T12:38:04;1.20;;;0.85;;
46210;SDS011;52144;48.040;-1.594;2022-07-23T12:40:34;0.75;;;0.52;;
46210;SDS011;52144;48.040;-1.594;2022-07-23T12:43:04;1.33;;;0.90;;
46210;SDS011;52144;48.040;-1.594;2022-07-23T12:45:44;0.73;;;0.73;;
46210;SDS011;52144;48.040;-1.594;2022-07-23T12:48:22;0.80;;;0.80;;
46210;SDS011;52144;48.040;-1.594;2022-07-23T12:50:53;0.68;;;0.60;;
46210;SDS011;52144;48.040;-1.594;2022-07-23T12:53:23;3.15;;;0.70;;
46210;SDS011;52144;48.040;-1.594;2022-07-23T12:55:56;0.90;;;0.80;;
46210;SDS011;52144;48.040;-1.594;2022-07-23T12:58:44;1.50;;;0.70;;
46210;SDS011;52144;48.040;-1.594;2022-07-23T13:01:26;1.45;;;0.65;;
46210;SDS011;52144;48.040;-1.594;2022-07-23T13:03:58;2.60;;;0.65;;
46210;SDS011;52144;48.040;-1.594;2022-07-23T13:06:29;0.60;;;0.60;;
46210;SDS011;52144;48.040;-1.594;2022-07-23T13:08:58;0.30;;;0.30;;
46210;SDS011;52144;48.040;-1.594;2022-07-23T13:11:47;1.92;;;0.88;;
46210;SDS011;52144;48.040;-1.594;2022-07-23T13:14:16;1.35;;;0.50;;
46210;SDS011;52144;48.040;-1.594;2022-07-23T13:16:47;0.70;;;0.70;;
46210;SDS011;52144;48.040;-1.594;2022-07-23T13:19:18;0.60;;;0.60;;
46210;SDS011;52144;48.040;-1.594;2022-07-23T13:21:48;0.77;;;0.77;;
46210;SDS011;52144;48.040;-1.594;2022-07-23T13:24:16;1.77;;;1.02;;
46210;SDS011;52144;48.040;-1.594;2022-07-23T13:26:45;2.15;;;1.02;;
46210;SDS011;52144;48.040;-1.594;2022-07-23T13:29:16;0.73;;;0.68;;
46210;SDS011;52144;48.040;-1.594;2022-07-23T13:31:45;2.22;;;1.00;;
46210;SDS011;52144;48.040;-1.594;2022-07-23T13:34:14;1.10;;;0.60;;
46210;SDS011;52144;48.040;-1.594;2022-07-23T13:36:43;9.07;;;1.05;;
46210;SDS011;52144;48.040;-1.594;2022-07-23T13:39:11;0.55;;;0.55;;
46210;SDS011;52144;48.040;-1.594;2022-07-23T13:41:39;1.33;;;0.75;;
46210;SDS011;52144;48.040;-1.594;2022-07-23T13:44:15;1.00;;;0.80;;
46210;SDS011;52144;48.040;-1.594;2022-07-23T13:46:43;0.93;;;0.60;;
46210;SDS011;52144;48.040;-1.594;2022-07-23T13:49:13;0.77;;;0.57;;
46210;SDS011;52144;48.040;-1.594;2022-07-23T13:51:42;1.23;;;1.13;;
46210;SDS011;52144;48.040;-1.594;2022-07-23T13:54:10;4.40;;;0.85;;
46210;SDS011;52144;48.040;-1.594;2022-07-23T13:56:38;7.35;;;1.00;;
46210;SDS011;52144;48.040;-1.594;2022-07-23T13:59:06;1.77;;;0.75;;
46210;SDS011;52144;48.040;-1.594;2022-07-23T14:01:33;1.17;;;0.65;;
46210;SDS011;52144;48.040;-1.594;2022-07-23T14:04:21;1.33;;;0.65;;
46210;SDS011;52144;48.040;-1.594;2022-07-23T14:06:51;0.70;;;0.70;;
46210;SDS011;52144;48.040;-1.594;2022-07-23T14:09:20;0.77;;;0.68;;
46210;SDS011;52144;48.040;-1.594;2022-07-23T14:11:50;0.88;;;0.70;;
46210;SDS011;52144;48.040;-1.594;2022-07-23T14:14:18;1.15;;;0.63;;
46210;SDS011;52144;48.040;-1.594;2022-07-23T14:16:47;1.35;;;0.68;;
46210;SDS011;52144;48.040;-1.594;2022-07-23T14:19:15;2.00;;;1.00;;
46210;SDS011;52144;48.040;-1.594;2022-07-23T14:21:44;2.20;;;1.00;;
46210;SDS011;52144;48.040;-1.594;2022-07-23T14:24:16;0.93;;;0.68;;
46210;SDS011;52144;48.040;-1.594;2022-07-23T14:26:46;0.70;;;0.65;;
46210;SDS011;52144;48.040;-1.594;2022-07-23T14:29:14;0.60;;;0.60;;
46210;SDS011;52144;48.040;-1.594;2022-07-23T14:31:42;2.25;;;0.60;;
46210;SDS011;52144;48.040;-1.594;2022-07-23T14:34:13;0.50;;;0.50;;
46210;SDS011;52144;48.040;-1.594;2022-07-23T14:36:40;1.10;;;1.00;;
46210;SDS011;52144;48.040;-1.594;2022-07-23T14:39:08;0.93;;;0.70;;
46210;SDS011;52144;48.040;-1.594;2022-07-23T14:41:39;0.40;;;0.40;;
46210;SDS011;52144;48.040;-1.594;2022-07-23T14:44:07;2.20;;;0.93;;
46210;SDS011;52144;48.040;-1.594;2022-07-23T14:46:35;0.47;;;0.40;;
46210;SDS011;52144;48.040;-1.594;2022-07-23T14:49:03;1.70;;;0.85;;
46210;SDS011;52144;48.040;-1.594;2022-07-23T14:51:33;0.50;;;0.50;;
46210;SDS011;52144;48.040;-1.594;2022-07-23T14:54:01;2.67;;;0.75;;
46210;SDS011;52144;48.040;-1.594;2022-07-23T14:56:29;0.95;;;0.70;;
46210;SDS011;52144;48.040;-1.594;2022-07-23T14:58:58;0.65;;;0.50;;
46210;SDS011;52144;48.040;-1.594;2022-07-23T15:01:27;1.30;;;0.52;;
46210;SDS011;52144;48.040;-1.594;2022-07-23T15:03:54;0.40;;;0.38;;
46210;SDS011;52144;48.040;-1.594;2022-07-23T15:06:42;1.83;;;1.15;;